sensor_id;sensor_type;location;lat;lon;timestamp;pressure;altitude;pressure_sealevel;temperature;humidity
57290;BME280;43523;53.022;-1.178;2023-03-18T00:00:34;99623.45;;;7.60;100.00
57290;BME280;43523;53.022;-1.178;2023-03-18T00:01:37;99626.49;;;7.63;100.00
57290;BME280;43523;53.022;-1.178;2023-03-18T00:02:39;99627.74;;;7.17;100.00
57290;BME280;43523;53.022;-1.178;2023-03-18T00:03:44;99627.07;;;7.58;100.00
57290;BME280;43523;53.022;-1.178;2023-03-18T00:04:46;99624.97;;;7.52;100.00
57290;BME280;43523;53.022;-1.178;2023-03-18T00:05:47;99622.02;;;7.45;100.00
57290;BME280;43523;53.022;-1.178;2023-03-18T00:06:50;99621.60;;;7.85;100.00
57290;BME280;43523;53.022;-1.178;2023-03-18T00:07:52;99622.79;;;7.90;100.00
57290;BME280;43523;53.022;-1.178;2023-03-18T00:08:55;99621.33;;;7.79;100.00
57290;BME280;43523;53.022;-1.178;2023-03-18T00:09:57;99620.33;;;7.94;100.00
57290;BME280;43523;53.022;-1.178;2023-03-18T00:11:00;99621.66;;;7.50;100.00
57290;BME280;43523;53.022;-1.178;2023-03-18T00:12:02;99617.74;;;7.96;100.00
57290;BME280;43523;53.022;-1.178;2023-03-18T00:13:04;99618.01;;;7.63;100.00
57290;BME280;43523;53.022;-1.178;2023-03-18T00:14:07;99615.49;;;7.60;100.00
57290;BME280;43523;53.022;-1.178;2023-03-18T00:15:12;99620.07;;;7.69;100.00
57290;BME280;43523;53.022;-1.178;2023-03-18T00:16:15;99618.07;;;7.75;100.00
57290;BME280;43523;53.022;-1.178;2023-03-18T00:17:17;99618.87;;;7.62;100.00
57290;BME280;43523;53.022;-1.178;2023-03-18T00:18:20;99621.88;;;7.69;100.00
57290;BME280;43523;53.022;-1.178;2023-03-18T00:19:22;99621.05;;;7.67;100.00
57290;BME280;43523;53.022;-1.178;2023-03-18T00:20:24;99628.42;;;7.55;100.00
57290;BME280;43523;53.022;-1.178;2023-03-18T00:21:27;99625.62;;;7.70;100.00
57290;BME280;43523;53.022;-1.178;2023-03-18T00:22:29;99628.51;;;7.83;100.00
57290;BME280;43523;53.022;-1.178;2023-03-18T00:23:32;99629.09;;;7.45;100.00
57290;BME280;43523;53.022;-1.178;2023-03-18T00:24:35;99628.01;;;7.39;100.00
57290;BME280;43523;53.022;-1.178;2023-03-18T00:25:38;99628.69;;;7.33;100.00
57290;BME280;43523;53.022;-1.178;2023-03-18T00:26:41;99626.37;;;7.36;100.00
57290;BME280;43523;53.022;-1.178;2023-03-18T00:27:44;99629.79;;;7.35;100.00
57290;BME280;43523;53.022;-1.178;2023-03-18T00:28:46;99631.34;;;7.45;100.00
57290;BME280;43523;53.022;-1.178;2023-03-18T00:29:49;99629.50;;;7.25;100.00
57290;BME280;43523;53.022;-1.178;2023-03-18T00:30:51;99631.79;;;7.23;100.00
57290;BME280;43523;53.022;-1.178;2023-03-18T00:31:53;99631.34;;;7.21;100.00
57290;BME280;43523;53.022;-1.178;2023-03-18T00:32:56;99632.17;;;7.37;100.00
57290;BME280;43523;53.022;-1.178;2023-03-18T00:34:04;99633.92;;;7.45;100.00
57290;BME280;43523;53.022;-1.178;2023-03-18T00:35:07;99634.13;;;7.19;100.00
57290;BME280;43523;53.022;-1.178;2023-03-18T00:36:11;99634.21;;;7.15;100.00
57290;BME280;43523;53.022;-1.178;2023-03-18T00:37:13;99631.42;;;7.11;100.00
57290;BME280;43523;53.022;-1.178;2023-03-18T00:38:15;99632.29;;;7.12;100.00
57290;BME280;43523;53.022;-1.178;2023-03-18T00:39:18;99633.74;;;7.21;100.00
57290;BME280;43523;53.022;-1.178;2023-03-18T00:40:20;99631.98;;;7.33;100.00
57290;BME280;43523;53.022;-1.178;2023-03-18T00:41:24;99634.62;;;7.08;100.00
57290;BME280;43523;53.022;-1.178;2023-03-18T00:42:26;99632.54;;;7.10;100.00
57290;BME280;43523;53.022;-1.178;2023-03-18T00:43:30;99634.17;;;7.42;100.00
57290;BME280;43523;53.022;-1.178;2023-03-18T00:44:37;99632.78;;;7.08;100.00
57290;BME280;43523;53.022;-1.178;2023-03-18T00:45:40;99632.68;;;7.32;100.00
57290;BME280;43523;53.022;-1.178;2023-03-18T00:46:44;99633.60;;;7.16;100.00
57290;BME280;43523;53.022;-1.178;2023-03-18T00:47:47;99631.61;;;7.47;100.00
57290;BME280;43523;53.022;-1.178;2023-03-18T00:48:50;99632.53;;;7.11;100.00
57290;BME280;43523;53.022;-1.178;2023-03-18T00:49:52;99631.67;;;7.28;100.00
57290;BME280;43523;53.022;-1.178;2023-03-18T00:50:55;99630.76;;;7.00;100.00
57290;BME280;43523;53.022;-1.178;2023-03-18T00:51:57;99630.80;;;7.06;100.00
57290;BME280;43523;53.022;-1.178;2023-03-18T00:53:00;99629.15;;;7.21;100.00
57290;BME280;43523;53.022;-1.178;2023-03-18T00:54:06;99631.33;;;6.95;100.00
57290;BME280;43523;53.022;-1.178;2023-03-18T00:55:08;99630.67;;;7.18;100.00
57290;BME280;43523;53.022;-1.178;2023-03-18T00:56:15;99627.09;;;7.10;100.00
57290;BME280;43523;53.022;-1.178;2023-03-18T00:57:18;99629.70;;;7.10;100.00
57290;BME280;43523;53.022;-1.178;2023-03-18T00:58:21;99629.14;;;7.16;100.00
57290;BME280;43523;53.022;-1.178;2023-03-18T00:59:24;99627.43;;;7.18;100.00
57290;BME280;43523;53.022;-1.178;2023-03-18T01:00:27;99628.12;;;7.05;100.00
57290;BME280;43523;53.022;-1.178;2023-03-18T01:01:29;99628.49;;;6.93;100.00
57290;BME280;43523;53.022;-1.178;2023-03-18T01:02:33;99627.82;;;6.74;100.00
57290;BME280;43523;53.022;-1.178;2023-03-18T01:03:35;99629.23;;;6.76;100.00
57290;BME280;43523;53.022;-1.178;2023-03-18T01:04:37;99628.37;;;7.02;100.00
57290;BME280;43523;53.022;-1.178;2023-03-18T01:05:39;99627.37;;;7.08;100.00
57290;BME280;43523;53.022;-1.178;2023-03-18T01:06:44;99628.58;;;7.15;100.00
57290;BME280;43523;53.022;-1.178;2023-03-18T01:07:46;99628.47;;;7.12;100.00
57290;BME280;43523;53.022;-1.178;2023-03-18T01:08:49;99627.46;;;7.24;100.00
57290;BME280;43523;53.022;-1.178;2023-03-18T01:09:52;99629.73;;;7.08;100.00
57290;BME280;43523;53.022;-1.178;2023-03-18T01:10:55;99627.26;;;7.06;100.00
57290;BME280;43523;53.022;-1.178;2023-03-18T01:11:57;99629.09;;;7.17;100.00
57290;BME280;43523;53.022;-1.178;2023-03-18T01:13:00;99627.55;;;6.99;100.00
57290;BME280;43523;53.022;-1.178;2023-03-18T01:14:02;99628.59;;;7.15;100.00
57290;BME280;43523;53.022;-1.178;2023-03-18T01:15:06;99630.11;;;7.18;100.00
57290;BME280;43523;53.022;-1.178;2023-03-18T01:16:10;99628.32;;;7.34;100.00
57290;BME280;43523;53.022;-1.178;2023-03-18T01:17:12;99629.95;;;7.14;100.00
57290;BME280;43523;53.022;-1.178;2023-03-18T01:18:15;99629.15;;;7.39;100.00
57290;BME280;43523;53.022;-1.178;2023-03-18T01:19:18;99630.49;;;7.21;100.00
57290;BME280;43523;53.022;-1.178;2023-03-18T01:20:20;99631.36;;;6.80;100.00
57290;BME280;43523;53.022;-1.178;2023-03-18T01:21:23;99630.95;;;7.03;100.00
57290;BME280;43523;53.022;-1.178;2023-03-18T01:22:25;99629.32;;;7.06;100.00
57290;BME280;43523;53.022;-1.178;2023-03-18T01:23:28;99630.12;;;6.78;100.00
57290;BME280;43523;53.022;-1.178;2023-03-18T01:24:31;99630.58;;;6.93;100.00
57290;BME280;43523;53.022;-1.178;2023-03-18T01:25:34;99628.84;;;7.19;100.00
57290;BME280;43523;53.022;-1.178;2023-03-18T01:26:37;99628.40;;;7.16;100.00
57290;BME280;43523;53.022;-1.178;2023-03-18T01:27:40;99628.23;;;7.21;100.00
57290;BME280;43523;53.022;-1.178;2023-03-18T01:28:47;99628.65;;;7.00;100.00
57290;BME280;43523;53.022;-1.178;2023-03-18T01:29:49;99626.47;;;6.93;100.00
57290;BME280;43523;53.022;-1.178;2023-03-18T01:30:54;99625.56;;;6.80;100.00
57290;BME280;43523;53.022;-1.178;2023-03-18T01:31:57;99626.72;;;6.91;100.00
57290;BME280;43523;53.022;-1.178;2023-03-18T01:33:00;99627.13;;;6.68;100.00
57290;BME280;43523;53.022;-1.178;2023-03-18T01:34:02;99628.44;;;6.83;100.00
57290;BME280;43523;53.022;-1.178;2023-03-18T01:35:05;99625.68;;;6.98;100.00
57290;BME280;43523;53.022;-1.178;2023-03-18T01:36:08;99627.45;;;6.78;100.00
57290;BME280;43523;53.022;-1.178;2023-03-18T01:37:11;99628.55;;;6.17;100.00
57290;BME280;43523;53.022;-1.178;2023-03-18T01:38:13;99625.83;;;6.87;100.00
57290;BME280;43523;53.022;-1.178;2023-03-18T01:39:16;99626.22;;;6.77;100.00
57290;BME280;43523;53.022;-1.178;2023-03-18T01:40:19;99624.01;;;6.69;100.00
57290;BME280;43523;53.022;-1.178;2023-03-18T01:41:22;99625.35;;;6.52;100.00
57290;BME280;43523;53.022;-1.178;2023-03-18T01:42:24;99624.10;;;7.16;100.00
57290;BME280;43523;53.022;-1.178;2023-03-18T01:43:30;99624.08;;;6.88;100.00
57290;BME280;43523;53.022;-1.178;2023-03-18T01:44:32;99623.68;;;7.31;100.00
57290;BME280;43523;53.022;-1.178;2023-03-18T01:45:35;99623.28;;;7.21;100.00
57290;BME280;43523;53.022;-1.178;2023-03-18T01:46:39;99623.21;;;6.99;100.00
57290;BME280;43523;53.022;-1.178;2023-03-18T01:47:41;99626.34;;;7.19;100.00
57290;BME280;43523;53.022;-1.178;2023-03-18T01:48:44;99625.63;;;6.98;100.00
57290;BME280;43523;53.022;-1.178;2023-03-18T01:49:48;99625.12;;;7.20;100.00
57290;BME280;43523;53.022;-1.178;2023-03-18T01:50:54;99624.78;;;6.96;100.00
57290;BME280;43523;53.022;-1.178;2023-03-18T01:52:00;99625.29;;;6.64;100.00
57290;BME280;43523;53.022;-1.178;2023-03-18T01:53:05;99622.67;;;6.66;100.00
57290;BME280;43523;53.022;-1.178;2023-03-18T01:54:10;99623.75;;;7.12;100.00
57290;BME280;43523;53.022;-1.178;2023-03-18T01:55:16;99625.63;;;6.58;100.00
57290;BME280;43523;53.022;-1.178;2023-03-18T01:56:20;99625.70;;;6.66;100.00
57290;BME280;43523;53.022;-1.178;2023-03-18T01:57:22;99626.42;;;6.95;100.00
57290;BME280;43523;53.022;-1.178;2023-03-18T01:58:27;99629.09;;;7.04;100.00
57290;BME280;43523;53.022;-1.178;2023-03-18T01:59:34;99627.53;;;7.06;100.00
57290;BME280;43523;53.022;-1.178;2023-03-18T02:00:45;99631.24;;;7.24;100.00
57290;BME280;43523;53.022;-1.178;2023-03-18T02:01:53;99628.43;;;7.07;100.00
57290;BME280;43523;53.022;-1.178;2023-03-18T02:02:57;99631.40;;;7.38;100.00
57290;BME280;43523;53.022;-1.178;2023-03-18T02:04:00;99632.36;;;7.01;100.00
57290;BME280;43523;53.022;-1.178;2023-03-18T02:05:07;99632.07;;;7.08;100.00
57290;BME280;43523;53.022;-1.178;2023-03-18T02:06:11;99632.69;;;6.88;100.00
57290;BME280;43523;53.022;-1.178;2023-03-18T02:07:15;99629.35;;;6.99;100.00
57290;BME280;43523;53.022;-1.178;2023-03-18T02:08:19;99630.04;;;7.15;100.00
57290;BME280;43523;53.022;-1.178;2023-03-18T02:09:21;99629.56;;;7.25;100.00
57290;BME280;43523;53.022;-1.178;2023-03-18T02:10:26;99629.07;;;7.52;100.00
57290;BME280;43523;53.022;-1.178;2023-03-18T02:11:30;99632.90;;;7.67;100.00
57290;BME280;43523;53.022;-1.178;2023-03-18T02:12:38;99630.90;;;7.60;100.00
57290;BME280;43523;53.022;-1.178;2023-03-18T02:13:42;99631.68;;;7.66;100.00
57290;BME280;43523;53.022;-1.178;2023-03-18T02:14:44;99627.63;;;7.78;100.00
57290;BME280;43523;53.022;-1.178;2023-03-18T02:15:55;99630.89;;;7.60;100.00
57290;BME280;43523;53.022;-1.178;2023-03-18T02:17:03;99627.13;;;7.63;100.00
57290;BME280;43523;53.022;-1.178;2023-03-18T02:18:11;99626.79;;;7.54;100.00
57290;BME280;43523;53.022;-1.178;2023-03-18T02:19:28;99628.38;;;7.52;100.00
57290;BME280;43523;53.022;-1.178;2023-03-18T02:20:47;99622.14;;;7.75;100.00
57290;BME280;43523;53.022;-1.178;2023-03-18T02:22:00;99621.59;;;7.37;100.00
57290;BME280;43523;53.022;-1.178;2023-03-18T02:23:11;99614.67;;;7.46;100.00
57290;BME280;43523;53.022;-1.178;2023-03-18T02:24:28;99615.80;;;7.34;100.00
57290;BME280;43523;53.022;-1.178;2023-03-18T02:25:40;99614.19;;;7.77;100.00
57290;BME280;43523;53.022;-1.178;2023-03-18T02:26:52;99615.87;;;7.47;100.00
57290;BME280;43523;53.022;-1.178;2023-03-18T02:28:00;99615.13;;;7.28;100.00
57290;BME280;43523;53.022;-1.178;2023-03-18T02:29:05;99614.00;;;7.40;100.00
57290;BME280;43523;53.022;-1.178;2023-03-18T02:30:13;99612.47;;;7.61;100.00
57290;BME280;43523;53.022;-1.178;2023-03-18T02:31:18;99614.37;;;7.46;100.00
57290;BME280;43523;53.022;-1.178;2023-03-18T02:32:24;99614.45;;;7.47;100.00
57290;BME280;43523;53.022;-1.178;2023-03-18T02:33:32;99612.69;;;7.32;100.00
57290;BME280;43523;53.022;-1.178;2023-03-18T02:34:38;99616.63;;;7.14;100.00
57290;BME280;43523;53.022;-1.178;2023-03-18T02:35:49;99615.38;;;7.59;100.00
57290;BME280;43523;53.022;-1.178;2023-03-18T02:36:53;99613.83;;;7.29;100.00
57290;BME280;43523;53.022;-1.178;2023-03-18T02:37:55;99611.90;;;7.22;100.00
57290;BME280;43523;53.022;-1.178;2023-03-18T02:38:58;99611.87;;;7.13;100.00
57290;BME280;43523;53.022;-1.178;2023-03-18T02:40:12;99613.80;;;6.88;100.00
57290;BME280;43523;53.022;-1.178;2023-03-18T02:41:17;99609.99;;;7.06;100.00
57290;BME280;43523;53.022;-1.178;2023-03-18T02:42:27;99608.86;;;6.61;100.00
57290;BME280;43523;53.022;-1.178;2023-03-18T02:43:31;99607.19;;;6.90;100.00
57290;BME280;43523;53.022;-1.178;2023-03-18T02:44:36;99606.83;;;7.23;100.00
57290;BME280;43523;53.022;-1.178;2023-03-18T02:45:46;99606.32;;;7.35;100.00
57290;BME280;43523;53.022;-1.178;2023-03-18T02:46:52;99604.41;;;7.48;100.00
57290;BME280;43523;53.022;-1.178;2023-03-18T02:47:57;99602.27;;;7.34;100.00
57290;BME280;43523;53.022;-1.178;2023-03-18T02:49:02;99604.58;;;6.84;100.00
57290;BME280;43523;53.022;-1.178;2023-03-18T02:50:06;99598.66;;;7.22;100.00
57290;BME280;43523;53.022;-1.178;2023-03-18T02:51:09;99600.83;;;7.27;100.00
57290;BME280;43523;53.022;-1.178;2023-03-18T02:52:11;99601.82;;;7.82;100.00
57290;BME280;43523;53.022;-1.178;2023-03-18T02:53:14;99602.83;;;7.57;100.00
57290;BME280;43523;53.022;-1.178;2023-03-18T02:54:18;99605.39;;;7.25;100.00
57290;BME280;43523;53.022;-1.178;2023-03-18T02:55:21;99605.93;;;7.56;100.00
57290;BME280;43523;53.022;-1.178;2023-03-18T02:56:24;99607.44;;;7.41;100.00
57290;BME280;43523;53.022;-1.178;2023-03-18T02:57:26;99606.72;;;7.39;100.00
57290;BME280;43523;53.022;-1.178;2023-03-18T02:58:29;99606.53;;;7.18;100.00
57290;BME280;43523;53.022;-1.178;2023-03-18T02:59:31;99605.80;;;6.95;100.00
57290;BME280;43523;53.022;-1.178;2023-03-18T03:00:33;99600.79;;;7.15;100.00
57290;BME280;43523;53.022;-1.178;2023-03-18T03:01:36;99601.03;;;6.90;100.00
57290;BME280;43523;53.022;-1.178;2023-03-18T03:02:39;99599.96;;;7.39;100.00
57290;BME280;43523;53.022;-1.178;2023-03-18T03:03:43;99599.10;;;7.48;100.00
57290;BME280;43523;53.022;-1.178;2023-03-18T03:04:45;99596.83;;;7.49;100.00
57290;BME280;43523;53.022;-1.178;2023-03-18T03:05:47;99600.22;;;7.58;100.00
57290;BME280;43523;53.022;-1.178;2023-03-18T03:06:51;99596.78;;;7.68;100.00
57290;BME280;43523;53.022;-1.178;2023-03-18T03:07:53;99593.85;;;7.67;100.00
57290;BME280;43523;53.022;-1.178;2023-03-18T03:08:57;99596.30;;;7.64;100.00
57290;BME280;43523;53.022;-1.178;2023-03-18T03:09:59;99596.25;;;7.66;100.00
57290;BME280;43523;53.022;-1.178;2023-03-18T03:11:02;99594.69;;;7.49;100.00
57290;BME280;43523;53.022;-1.178;2023-03-18T03:12:04;99594.79;;;7.07;100.00
57290;BME280;43523;53.022;-1.178;2023-03-18T03:13:07;99592.90;;;7.29;100.00
57290;BME280;43523;53.022;-1.178;2023-03-18T03:14:12;99591.83;;;7.56;100.00
57290;BME280;43523;53.022;-1.178;2023-03-18T03:15:14;99593.55;;;7.00;100.00
57290;BME280;43523;53.022;-1.178;2023-03-18T03:16:17;99595.20;;;7.27;100.00
57290;BME280;43523;53.022;-1.178;2023-03-18T03:17:19;99598.46;;;6.71;100.00
57290;BME280;43523;53.022;-1.178;2023-03-18T03:18:22;99596.42;;;7.04;100.00
57290;BME280;43523;53.022;-1.178;2023-03-18T03:19:24;99599.06;;;7.25;100.00
57290;BME280;43523;53.022;-1.178;2023-03-18T03:20:27;99598.35;;;7.81;100.00
57290;BME280;43523;53.022;-1.178;2023-03-18T03:21:29;99599.47;;;7.46;100.00
57290;BME280;43523;53.022;-1.178;2023-03-18T03:22:31;99601.87;;;7.12;100.00
57290;BME280;43523;53.022;-1.178;2023-03-18T03:23:34;99602.07;;;7.12;100.00
57290;BME280;43523;53.022;-1.178;2023-03-18T03:24:43;99603.58;;;6.92;100.00
57290;BME280;43523;53.022;-1.178;2023-03-18T03:25:46;99602.51;;;7.01;100.00
57290;BME280;43523;53.022;-1.178;2023-03-18T03:26:49;99605.77;;;7.25;100.00
57290;BME280;43523;53.022;-1.178;2023-03-18T03:27:51;99604.75;;;7.24;100.00
57290;BME280;43523;53.022;-1.178;2023-03-18T03:28:53;99605.27;;;7.04;100.00
57290;BME280;43523;53.022;-1.178;2023-03-18T03:29:56;99606.79;;;6.87;100.00
57290;BME280;43523;53.022;-1.178;2023-03-18T03:30:59;99606.17;;;7.10;100.00
57290;BME280;43523;53.022;-1.178;2023-03-18T03:32:02;99609.51;;;6.83;100.00
57290;BME280;43523;53.022;-1.178;2023-03-18T03:33:05;99610.90;;;7.21;100.00
57290;BME280;43523;53.022;-1.178;2023-03-18T03:34:08;99610.67;;;6.86;100.00
57290;BME280;43523;53.022;-1.178;2023-03-18T03:35:12;99610.96;;;7.43;100.00
57290;BME280;43523;53.022;-1.178;2023-03-18T03:36:16;99611.50;;;7.34;100.00
57290;BME280;43523;53.022;-1.178;2023-03-18T03:37:19;99610.67;;;7.21;100.00
57290;BME280;43523;53.022;-1.178;2023-03-18T03:38:21;99608.97;;;7.21;100.00
57290;BME280;43523;53.022;-1.178;2023-03-18T03:39:23;99612.52;;;7.10;100.00
57290;BME280;43523;53.022;-1.178;2023-03-18T03:40:26;99611.53;;;6.92;100.00
57290;BME280;43523;53.022;-1.178;2023-03-18T03:41:28;99611.74;;;6.97;100.00
57290;BME280;43523;53.022;-1.178;2023-03-18T03:42:31;99610.21;;;7.01;100.00
57290;BME280;43523;53.022;-1.178;2023-03-18T03:43:33;99607.57;;;7.26;100.00
57290;BME280;43523;53.022;-1.178;2023-03-18T03:44:35;99608.85;;;7.04;100.00
57290;BME280;43523;53.022;-1.178;2023-03-18T03:45:38;99607.52;;;6.77;100.00
57290;BME280;43523;53.022;-1.178;2023-03-18T03:46:40;99607.86;;;6.84;100.00
57290;BME280;43523;53.022;-1.178;2023-03-18T03:47:48;99608.05;;;6.74;100.00
57290;BME280;43523;53.022;-1.178;2023-03-18T03:48:50;99607.77;;;6.91;100.00
57290;BME280;43523;53.022;-1.178;2023-03-18T03:49:52;99607.29;;;6.53;100.00
57290;BME280;43523;53.022;-1.178;2023-03-18T03:50:55;99609.41;;;6.68;100.00
57290;BME280;43523;53.022;-1.178;2023-03-18T03:51:57;99610.89;;;6.72;100.00
57290;BME280;43523;53.022;-1.178;2023-03-18T03:53:00;99611.21;;;6.73;100.00
57290;BME280;43523;53.022;-1.178;2023-03-18T03:54:03;99612.42;;;6.77;100.00
57290;BME280;43523;53.022;-1.178;2023-03-18T03:55:06;99615.00;;;6.67;100.00
57290;BME280;43523;53.022;-1.178;2023-03-18T03:56:10;99614.78;;;6.82;100.00
57290;BME280;43523;53.022;-1.178;2023-03-18T03:57:12;99615.62;;;6.70;100.00
57290;BME280;43523;53.022;-1.178;2023-03-18T03:58:14;99617.32;;;6.79;100.00
57290;BME280;43523;53.022;-1.178;2023-03-18T03:59:17;99616.06;;;6.87;100.00
57290;BME280;43523;53.022;-1.178;2023-03-18T04:00:21;99618.67;;;6.41;100.00
57290;BME280;43523;53.022;-1.178;2023-03-18T04:01:24;99619.20;;;6.54;100.00
57290;BME280;43523;53.022;-1.178;2023-03-18T04:02:26;99621.50;;;6.90;100.00
57290;BME280;43523;53.022;-1.178;2023-03-18T04:03:28;99622.08;;;6.64;100.00
57290;BME280;43523;53.022;-1.178;2023-03-18T04:04:31;99620.50;;;7.04;100.00
57290;BME280;43523;53.022;-1.178;2023-03-18T04:05:34;99622.79;;;6.43;100.00
57290;BME280;43523;53.022;-1.178;2023-03-18T04:06:37;99626.31;;;6.98;100.00
57290;BME280;43523;53.022;-1.178;2023-03-18T04:07:39;99630.98;;;7.20;100.00
57290;BME280;43523;53.022;-1.178;2023-03-18T04:08:43;99631.17;;;7.05;100.00
57290;BME280;43523;53.022;-1.178;2023-03-18T04:09:45;99629.30;;;7.15;100.00
57290;BME280;43523;53.022;-1.178;2023-03-18T04:10:48;99632.18;;;7.24;100.00
57290;BME280;43523;53.022;-1.178;2023-03-18T04:11:50;99630.86;;;7.09;100.00
57290;BME280;43523;53.022;-1.178;2023-03-18T04:12:53;99631.86;;;6.66;100.00
57290;BME280;43523;53.022;-1.178;2023-03-18T04:13:55;99631.11;;;6.77;100.00
57290;BME280;43523;53.022;-1.178;2023-03-18T04:14:57;99633.89;;;6.89;100.00
57290;BME280;43523;53.022;-1.178;2023-03-18T04:16:00;99630.69;;;5.95;100.00
57290;BME280;43523;53.022;-1.178;2023-03-18T04:17:03;99632.84;;;6.54;100.00
57290;BME280;43523;53.022;-1.178;2023-03-18T04:18:05;99628.89;;;7.01;100.00
57290;BME280;43523;53.022;-1.178;2023-03-18T04:19:08;99629.41;;;7.08;100.00
57290;BME280;43523;53.022;-1.178;2023-03-18T04:20:11;99630.14;;;7.31;100.00
57290;BME280;43523;53.022;-1.178;2023-03-18T04:21:14;99626.30;;;7.59;100.00
57290;BME280;43523;53.022;-1.178;2023-03-18T04:22:16;99628.58;;;7.06;100.00
57290;BME280;43523;53.022;-1.178;2023-03-18T04:23:18;99628.50;;;7.29;100.00
57290;BME280;43523;53.022;-1.178;2023-03-18T04:24:21;99626.43;;;6.74;100.00
57290;BME280;43523;53.022;-1.178;2023-03-18T04:25:23;99625.70;;;7.28;100.00
57290;BME280;43523;53.022;-1.178;2023-03-18T04:26:26;99622.60;;;6.67;100.00
57290;BME280;43523;53.022;-1.178;2023-03-18T04:27:29;99620.99;;;6.86;100.00
57290;BME280;43523;53.022;-1.178;2023-03-18T04:28:31;99620.55;;;6.82;100.00
57290;BME280;43523;53.022;-1.178;2023-03-18T04:29:33;99618.44;;;6.94;100.00
57290;BME280;43523;53.022;-1.178;2023-03-18T04:30:35;99619.23;;;6.83;100.00
57290;BME280;43523;53.022;-1.178;2023-03-18T04:31:38;99617.60;;;6.76;100.00
57290;BME280;43523;53.022;-1.178;2023-03-18T04:32:40;99618.27;;;6.19;100.00
57290;BME280;43523;53.022;-1.178;2023-03-18T04:33:44;99618.00;;;6.60;100.00
57290;BME280;43523;53.022;-1.178;2023-03-18T04:34:46;99620.31;;;6.48;100.00
57290;BME280;43523;53.022;-1.178;2023-03-18T04:35:49;99618.75;;;6.44;100.00
57290;BME280;43523;53.022;-1.178;2023-03-18T04:36:51;99621.40;;;6.34;100.00
57290;BME280;43523;53.022;-1.178;2023-03-18T04:37:54;99619.42;;;6.12;100.00
57290;BME280;43523;53.022;-1.178;2023-03-18T04:38:56;99620.08;;;6.14;100.00
57290;BME280;43523;53.022;-1.178;2023-03-18T04:39:59;99624.15;;;6.32;100.00
57290;BME280;43523;53.022;-1.178;2023-03-18T04:41:01;99625.03;;;6.28;100.00
57290;BME280;43523;53.022;-1.178;2023-03-18T04:42:04;99627.56;;;6.26;100.00
57290;BME280;43523;53.022;-1.178;2023-03-18T04:43:06;99629.15;;;6.30;100.00
57290;BME280;43523;53.022;-1.178;2023-03-18T04:44:09;99631.87;;;6.22;100.00
57290;BME280;43523;53.022;-1.178;2023-03-18T04:45:11;99631.06;;;6.46;100.00
57290;BME280;43523;53.022;-1.178;2023-03-18T04:46:14;99631.14;;;6.52;100.00
57290;BME280;43523;53.022;-1.178;2023-03-18T04:47:16;99632.03;;;6.33;100.00
57290;BME280;43523;53.022;-1.178;2023-03-18T04:48:19;99632.12;;;5.97;100.00
57290;BME280;43523;53.022;-1.178;2023-03-18T04:49:21;99633.37;;;6.31;100.00
57290;BME280;43523;53.022;-1.178;2023-03-18T04:50:23;99635.95;;;6.38;100.00
57290;BME280;43523;53.022;-1.178;2023-03-18T04:51:26;99638.21;;;6.30;100.00
57290;BME280;43523;53.022;-1.178;2023-03-18T04:52:28;99641.50;;;6.32;100.00
57290;BME280;43523;53.022;-1.178;2023-03-18T04:53:31;99642.92;;;6.29;100.00
57290;BME280;43523;53.022;-1.178;2023-03-18T04:54:34;99646.34;;;6.39;100.00
57290;BME280;43523;53.022;-1.178;2023-03-18T04:55:36;99650.18;;;6.36;100.00
57290;BME280;43523;53.022;-1.178;2023-03-18T04:56:39;99649.41;;;6.30;100.00
57290;BME280;43523;53.022;-1.178;2023-03-18T04:57:41;99649.90;;;6.55;100.00
57290;BME280;43523;53.022;-1.178;2023-03-18T04:58:45;99647.54;;;6.54;100.00
57290;BME280;43523;53.022;-1.178;2023-03-18T04:59:47;99650.91;;;6.58;100.00
57290;BME280;43523;53.022;-1.178;2023-03-18T05:00:50;99650.46;;;6.55;100.00
57290;BME280;43523;53.022;-1.178;2023-03-18T05:01:52;99647.65;;;5.75;100.00
57290;BME280;43523;53.022;-1.178;2023-03-18T05:02:54;99650.45;;;6.12;100.00
57290;BME280;43523;53.022;-1.178;2023-03-18T05:03:57;99649.95;;;5.96;100.00
57290;BME280;43523;53.022;-1.178;2023-03-18T05:04:59;99651.27;;;5.75;100.00
57290;BME280;43523;53.022;-1.178;2023-03-18T05:06:01;99653.30;;;5.85;100.00
57290;BME280;43523;53.022;-1.178;2023-03-18T05:07:04;99654.12;;;5.95;100.00
57290;BME280;43523;53.022;-1.178;2023-03-18T05:08:06;99655.69;;;6.17;100.00
57290;BME280;43523;53.022;-1.178;2023-03-18T05:09:08;99658.40;;;6.19;100.00
57290;BME280;43523;53.022;-1.178;2023-03-18T05:10:11;99659.10;;;6.57;100.00
57290;BME280;43523;53.022;-1.178;2023-03-18T05:11:14;99658.67;;;6.40;100.00
57290;BME280;43523;53.022;-1.178;2023-03-18T05:12:16;99659.84;;;6.19;100.00
57290;BME280;43523;53.022;-1.178;2023-03-18T05:13:19;99658.46;;;6.22;100.00
57290;BME280;43523;53.022;-1.178;2023-03-18T05:14:21;99660.68;;;5.77;100.00
57290;BME280;43523;53.022;-1.178;2023-03-18T05:15:23;99662.94;;;6.01;100.00
57290;BME280;43523;53.022;-1.178;2023-03-18T05:16:26;99662.48;;;5.99;100.00
57290;BME280;43523;53.022;-1.178;2023-03-18T05:17:29;99663.59;;;6.26;100.00
57290;BME280;43523;53.022;-1.178;2023-03-18T05:18:32;99664.76;;;5.24;100.00
57290;BME280;43523;53.022;-1.178;2023-03-18T05:19:34;99666.52;;;5.12;100.00
57290;BME280;43523;53.022;-1.178;2023-03-18T05:20:38;99664.95;;;5.17;100.00
57290;BME280;43523;53.022;-1.178;2023-03-18T05:21:40;99665.35;;;5.52;100.00
57290;BME280;43523;53.022;-1.178;2023-03-18T05:22:45;99664.96;;;5.88;100.00
57290;BME280;43523;53.022;-1.178;2023-03-18T05:23:47;99667.34;;;4.98;100.00
57290;BME280;43523;53.022;-1.178;2023-03-18T05:24:50;99667.36;;;5.78;100.00
57290;BME280;43523;53.022;-1.178;2023-03-18T05:25:52;99669.75;;;6.04;100.00
57290;BME280;43523;53.022;-1.178;2023-03-18T05:26:54;99666.34;;;6.13;100.00
57290;BME280;43523;53.022;-1.178;2023-03-18T05:27:57;99670.06;;;5.81;100.00
57290;BME280;43523;53.022;-1.178;2023-03-18T05:28:59;99671.98;;;5.81;100.00
57290;BME280;43523;53.022;-1.178;2023-03-18T05:30:02;99671.08;;;5.78;100.00
57290;BME280;43523;53.022;-1.178;2023-03-18T05:31:05;99673.18;;;5.92;100.00
57290;BME280;43523;53.022;-1.178;2023-03-18T05:32:08;99676.33;;;6.22;100.00